Detalii statie COMAGRA BEREGSAU [00001994]

Toti senzorii

Date Temperatura solului [C]Precipitatii [mm]Voltaj baterie [mV]Leaf Wetness [Min]HC Air temperature [C]HC Relative humidity [%]Punctul de roua [C]
medieminmaxsumaultimatimpmedieminmaxmediemediemin
2017-06-25 06:00:00 21.5 21.3 21.8 0.2 6786 16.31 16.15 16.53 100 16.2 16.1
2017-06-25 07:00:00 21.2 21 21.5 0 6844 17.22 16.58 17.9 100 17.1 16.5
2017-06-25 08:00:00 21 20.9 21.2 0 6922 19.41 18.05 22.38 98.47 19 18
2017-06-25 09:00:00 20.9 20.8 21 0 7020 24.46 23.06 26.32 69.97 18.3 17.1
2017-06-25 10:00:00 20.9 20.9 21 0 7080 28.87 26.82 30.76 56.19 19 17.7
2017-06-25 11:00:00 21 21 21.2 0 7186 30.24 29.82 30.77 48.96 18.1 17.3
2017-06-25 12:00:00 21.2 21.1 21.5 0 7186 32.49 30.92 33.41 42.22 17.7 16.6
2017-06-25 13:00:00 21.6 21.3 22 0 7186 33.87 33.08 35.14 38.89 17.6 15.9
2017-06-25 14:00:00 22.5 22.1 23 0 7186 34.22 33.5 35.43 37.28 17.3 16.1
2017-06-25 15:00:00 23.5 23.1 24 0 7176 35.86 34.92 37.44 35.15 17.8 16.2
2017-06-25 16:00:00 24.5 24.1 25 0 7186 35.78 35.01 36.9 34.71 17.5 16.3
2017-06-25 17:00:00 25.6 25.2 25.9 0 7186 35.55 35.14 36.24 35 17.4 16.4
2017-06-25 18:00:00 26.2 26 26.5 0 7186 34.9 34.59 35.12 33.42 16.1 15.2
2017-06-25 19:00:00 26.5 26.5 26.7 0 7176 33.93 33.19 34.66 36.7 16.8 16
2017-06-25 20:00:00 26.5 26.3 26.7 0 6904 29.85 28.08 32.52 47.08 17 16.5
2017-06-25 21:00:00 26.2 26.1 26.5 0 6826 25.92 24.09 28.03 59.91 17.3 16.6
2017-06-25 22:00:00 25.8 25.7 26.2 0 6826 25.01 23.33 28.39 65.12 17.7 16.6
2017-06-25 23:00:00 25.3 25.1 25.7 0 6816 23.31 22.28 24.03 71.66 17.7 17.5
2017-06-26 00:00:00 24.8 24.6 25.2 0 6806 22.68 22.47 22.99 76.12 18 17.8
2017-06-26 01:00:00 24.4 24.1 24.6 0 6806 22.58 22.41 22.82 78.33 18.5 17.8
2017-06-26 02:00:00 24 23.8 24.3 0 6806 21.23 20.18 22.8 88.7 19 17.3
2017-06-26 03:00:00 23.6 23.4 23.9 0.6 6796 20.29 20.09 20.49 99.89 20.2 20
2017-06-26 04:00:00 23.2 23 23.5 0.2 6786 20.02 19.96 20.09 100 19.9 19.9
2017-06-26 05:00:00 22.9 22.7 23.1 0 6786 19.79 19.7 19.96 100 19.7 19.7
2017-06-26 06:00:00 22.6 22.5 22.8 0 6786 19.85 19.76 20.05 100 19.8 19.7
2017-06-26 07:00:00 22.4 22.3 22.5 0 6844 20.09 19.86 20.45 100 20 19.8
2017-06-26 08:00:00 22.2 22.1 22.3 0.2 6914 20.13 19.8 20.48 100 20 19.8
2017-06-26 09:00:00 22.1 22.1 22.3 0 7118 20.35 19.74 20.98 100 20.3 19.7
2017-06-26 10:00:00 22.1 21.9 22.3 0 7186 22.63 21.23 23.94 94.15 21.5 21
2017-06-26 11:00:00 22.3 22.1 22.5 0 7196 23.95 23.59 24.63 85.18 21.1 20.4
2017-06-26 12:00:00 22.6 22.5 22.7 0 7186 25.63 24.46 26.45 74.04 20.5 20
2017-06-26 13:00:00 22.9 22.7 23.2 0 7186 27.11 25.69 28.56 65.02 19.7 18.8
2017-06-26 14:00:00 23.6 23.2 24 0 7186 28.28 27.51 28.92 58.02 19 18.2
2017-06-26 15:00:00 24.5 24.1 24.9 0 7196 27.69 26.46 29.17 59.66 18.9 18.7
2017-06-26 16:00:00 25.2 25.1 25.5 0 7196 27.39 26.5 28.67 59.56 18.6 17.9
2017-06-26 17:00:00 25.6 25.5 25.9 0 7196 27.76 26.66 28.23 56.5 18.1 17.3
2017-06-26 18:00:00 25.9 25.9 26.1 0 7196 28.22 27.81 28.68 51.05 16.9 15.5
2017-06-26 19:00:00 26 26 26.1 0 7176 27.26 26.13 28.09 50.14 15.7 15
2017-06-26 20:00:00 26 25.9 26.1 0 7176 25.6 24.97 25.98 61.15 17.3 16.4
2017-06-26 21:00:00 25.7 25.5 25.9 0 6844 23.74 22.93 24.62 70.88 18 17.6
2017-06-26 22:00:00 25.3 25.1 25.6 0 6826 22.1 21.75 22.66 78.26 18 17.7
2017-06-26 23:00:00 24.8 24.7 25.1 0 6816 19.87 18.98 21.39 87.66 17.6 17.3
2017-06-27 00:00:00 24.2 24.1 24.5 0.8 6816 19.18 18.27 19.9 93.71 18 17.8
2017-06-27 01:00:00 23.8 23.6 24.1 1.2 6796 17.86 16.93 18.36 100 17.8 16.9
2017-06-27 02:00:00 23.2 23 23.5 0.6 6786 16.22 15.59 16.73 100 16.1 15.5
2017-06-27 03:00:00 22.8 22.6 23.1 0.4 6786 15.82 15.32 16.11 100 15.7 15.3
2017-06-27 04:00:00 22.3 22.1 22.6 1.2 6776 15.12 14.85 15.47 100 15 14.8
2017-06-27 05:00:00 21.9 21.7 22.2 0.4 6766 14.65 14.06 15.17 100 14.6 14